Time;durP1;ratioP1;P1;durP2;ratioP2;P2;SDS_P1;SDS_P2;PMS_P1;PMS_P2;Temp;Humidity;BMP_temperature;BMP_pressure;BME280_temperature;BME280_humidity;BME280_pressure;Samples;Min_cycle;Max_cycle;Signal;HPM_P1;HPM_P2
2021/12/06 00:00:49;;;;;;;15.20;8.38;;;;;;;8.15;89.22;96374.09;5034674;28;20500;-89
2021/12/06 00:03:19;;;;;;;15.43;7.68;;;;;;;7.95;89.04;96340.06;5034343;28;20056;-87
2021/12/06 00:05:45;;;;;;;15.10;6.15;;;;;;;7.95;89.15;96345.38;5017223;28;20056;-88
2021/12/06 00:08:11;;;;;;;9.95;5.25;;;;;;;7.84;89.51;96315.16;5017906;28;20029;-89
2021/12/06 00:10:37;;;;;;;13.63;7.50;;;;;;;7.98;89.64;96336.31;5016921;28;20025;-88
2021/12/06 00:13:03;;;;;;;7.00;4.45;;;;;;;7.96;89.68;96363.06;5016698;28;20052;-87
2021/12/06 00:15:32;;;;;;;13.05;6.22;;;;;;;7.87;89.63;96339.75;5017806;28;20036;-89
2021/12/06 00:17:59;;;;;;;11.55;6.10;;;;;;;8.01;89.22;96371.56;5017648;28;20449;-89
2021/12/06 00:20:24;;;;;;;9.65;5.00;;;;;;;7.96;89.67;96364.88;5018716;28;20049;-89
2021/12/06 00:22:50;;;;;;;12.48;6.95;;;;;;;7.77;90.56;96362.66;5017957;28;20033;-86
2021/12/06 00:25:16;;;;;;;16.13;7.22;;;;;;;7.86;91.35;96393.94;5034019;28;20135;-88
2021/12/06 00:27:42;;;;;;;16.17;8.35;;;;;;;7.85;90.96;96394.88;5017058;28;20049;-89
2021/12/06 00:30:11;;;;;;;12.43;6.32;;;;;;;7.82;91.79;96389.78;5017152;28;20032;-88
2021/12/06 00:32:37;;;;;;;9.32;5.07;;;;;;;7.92;90.82;96385.53;5017154;28;20130;-88
2021/12/06 00:35:04;;;;;;;4.38;2.47;;;;;;;8.03;90.19;96380.28;5017202;28;20500;-87
2021/12/06 00:37:41;;;;;;;13.43;6.35;;;;;;;8.22;88.69;96373.66;5017426;28;20021;-89
2021/12/06 00:40:08;;;;;;;12.20;7.50;;;;;;;8.17;88.21;96380.19;5019151;28;20488;-89
2021/12/06 00:42:34;;;;;;;13.07;6.93;;;;;;;8.31;88.46;96407.66;5017177;28;20021;-89
2021/12/06 00:45:08;;;;;;;12.02;6.53;;;;;;;8.30;88.39;96416.63;5016344;28;20504;-88
2021/12/06 00:47:34;;;;;;;14.90;7.55;;;;;;;8.04;89.98;96395.31;5016568;28;20499;-89
2021/12/06 00:49:59;;;;;;;13.65;6.90;;;;;;;8.02;90.34;96415.88;5017334;28;20088;-88
2021/12/06 00:52:25;;;;;;;15.82;7.65;;;;;;;8.05;90.57;96433.44;5017589;28;20029;-88
2021/12/06 00:54:52;;;;;;;12.15;6.78;;;;;;;8.10;90.70;96441.94;5033629;28;20021;-87
2021/12/06 00:57:18;;;;;;;8.35;4.20;;;;;;;8.11;89.66;96441.88;5017588;28;20018;-86
2021/12/06 00:59:45;;;;;;;15.48;5.22;;;;;;;8.13;88.40;96409.78;5016593;28;20032;-90
2021/12/06 01:02:12;;;;;;;7.35;4.15;;;;;;;8.36;88.00;96445.50;5037356;28;20476;-88
2021/12/06 01:04:40;;;;;;;6.68;4.10;;;;;;;8.13;87.47;96404.44;5020490;28;20492;-90
2021/12/06 01:07:07;;;;;;;15.32;5.38;;;;;;;8.34;86.89;96431.41;5251008;22;20040;-90
2021/12/06 01:09:33;;;;;;;11.82;5.53;;;;;;;8.33;86.80;96401.28;4991846;28;20035;-88
2021/12/06 01:11:59;;;;;;;10.93;6.22;;;;;;;8.42;86.62;96421.06;4988759;28;20085;-89
2021/12/06 01:14:24;;;;;;;6.88;3.72;;;;;;;8.47;85.83;96416.25;4978146;28;20030;-88
2021/12/06 01:16:50;;;;;;;8.77;5.03;;;;;;;8.43;85.60;96396.97;4994836;28;20022;-88
2021/12/06 01:19:16;;;;;;;11.93;6.35;;;;;;;8.55;85.89;96417.41;4976821;28;20513;-85
2021/12/06 01:24:11;;;;;;;5.63;3.45;;;;;;;8.45;85.91;96388.88;5091266;28;20030;-88
2021/12/06 01:39:53;;;;;;;9.35;5.18;;;;;;;8.35;86.85;96390.50;4997158;28;20064;-88
2021/12/06 01:42:19;;;;;;;9.82;4.65;;;;;;;8.36;87.96;96400.19;4994615;28;20493;-89
2021/12/06 01:44:49;;;;;;;10.25;5.53;;;;;;;8.23;87.53;96370.88;4994512;28;20026;-91
2021/12/06 01:47:31;;;;;;;14.20;6.13;;;;;;;8.42;87.46;96405.09;4994313;28;20030;-89
2021/12/06 01:50:02;;;;;;;17.20;5.70;;;;;;;8.40;86.92;96378.53;4994204;28;20026;-89
2021/12/06 01:52:33;;;;;;;10.98;6.20;;;;;;;8.38;86.42;96350.31;4994093;28;20033;-90
2021/12/06 01:55:00;;;;;;;12.50;5.57;;;;;;;8.37;84.94;96328.16;4993753;28;20057;-88
2021/12/06 01:57:28;;;;;;;12.20;6.47;;;;;;;8.65;85.29;96365.16;4994370;28;20041;-89
2021/12/06 01:59:54;;;;;;;7.60;3.85;;;;;;;8.49;84.59;96310.44;4993955;28;20030;-88
2021/12/06 02:02:22;;;;;;;11.95;6.18;;;;;;;8.50;84.10;96317.44;4994645;28;20022;-89
2021/12/06 02:04:48;;;;;;;13.32;5.90;;;;;;;8.47;84.39;96307.00;5079554;28;20413;-90
2021/12/06 02:07:19;;;;;;;11.20;5.10;;;;;;;8.54;84.25;96293.13;5094498;28;20040;-89
2021/12/06 02:10:05;;;;;;;11.13;5.90;;;;;;;8.30;84.79;96257.66;5105214;28;20031;-90
2021/12/06 02:12:31;;;;;;;12.98;6.57;;;;;;;8.49;85.64;96321.91;5100347;28;20269;-89
2021/12/06 02:15:07;;;;;;;11.23;5.90;;;;;;;8.40;86.12;96308.44;5099811;28;20027;-89
2021/12/06 02:17:39;;;;;;;12.82;5.90;;;;;;;8.11;86.32;96305.19;5101409;28;20487;-90
2021/12/06 02:20:14;;;;;;;8.35;4.53;;;;;;;7.70;88.97;96341.88;5101383;28;20020;-88
2021/12/06 02:22:46;;;;;;;16.10;7.07;;;;;;;7.57;90.43;96315.25;5099689;28;20555;-88
2021/12/06 02:25:16;;;;;;;11.70;6.07;;;;;;;7.77;91.33;96338.69;5060816;28;20509;-89
2021/12/06 02:27:42;;;;;;;11.13;6.00;;;;;;;7.68;91.07;96317.19;5081141;28;20051;-89
2021/12/06 02:30:09;;;;;;;12.65;6.18;;;;;;;7.73;90.80;96307.06;5099447;28;20031;-89
2021/12/06 02:32:35;;;;;;;12.55;6.70;;;;;;;7.80;89.93;96282.59;5091808;28;20036;-89
2021/12/06 02:35:01;;;;;;;10.43;5.28;;;;;;;8.09;88.83;96312.44;5055099;28;20028;-89
2021/12/06 02:40:49;;;;;;;11.05;6.10;;;;;;;8.04;88.01;96303.91;5093876;28;20108;-89
2021/12/06 02:43:15;;;;;;;12.20;5.35;;;;;;;8.10;87.37;96322.13;5066073;28;20047;-90
2021/12/06 02:45:41;;;;;;;10.18;4.22;;;;;;;8.03;86.85;96303.06;5079728;28;20030;-89
2021/12/06 02:48:10;;;;;;;8.98;4.80;;;;;;;8.36;86.21;96330.94;5065689;28;20106;-88
2021/12/06 02:50:48;;;;;;;9.45;5.15;;;;;;;8.31;86.52;96338.38;5064829;28;20063;-89
2021/12/06 02:53:14;;;;;;;9.90;5.60;;;;;;;8.30;86.78;96348.22;5063382;28;20020;-91
2021/12/06 02:55:42;;;;;;;9.10;4.68;;;;;;;8.34;86.30;96339.03;5020556;28;20034;-88
2021/12/06 02:58:22;;;;;;;8.60;4.35;;;;;;;8.18;86.13;96296.63;5082573;28;20020;-88
2021/12/06 03:00:52;;;;;;;4.07;2.38;;;;;;;8.24;86.22;96303.34;5083366;28;20091;-88
2021/12/06 03:03:18;;;;;;;8.85;5.50;;;;;;;8.29;86.13;96324.34;5099212;28;20030;-90
2021/12/06 03:05:45;;;;;;;24.38;5.38;;;;;;;8.46;85.83;96346.13;5099135;28;20023;-88
2021/12/06 03:08:11;;;;;;;9.82;4.93;;;;;;;8.35;85.25;96339.88;5098041;28;20123;-88
2021/12/06 03:10:37;;;;;;;13.48;6.20;;;;;;;8.28;85.19;96323.50;5098854;28;20498;-88
2021/12/06 03:13:03;;;;;;;10.57;6.32;;;;;;;8.12;86.09;96301.59;5098603;28;20086;-87
2021/12/06 03:15:29;;;;;;;11.63;5.88;;;;;;;8.10;85.88;96315.00;5098246;28;20036;-88
2021/12/06 03:17:55;;;;;;;15.38;7.13;;;;;;;8.16;85.99;96330.53;5098458;28;20566;-88
2021/12/06 03:20:21;;;;;;;11.70;6.70;;;;;;;8.02;86.43;96293.41;5098777;28;20047;-89
2021/12/06 03:22:47;;;;;;;14.30;6.70;;;;;;;7.88;86.32;96256.25;5082251;28;20011;-88
2021/12/06 03:25:15;;;;;;;7.55;4.50;;;;;;;8.40;84.91;96319.09;5052297;28;20568;-88
2021/12/06 03:27:41;;;;;;;9.32;5.53;;;;;;;8.45;84.38;96316.94;4979650;28;20030;-88
2021/12/06 03:30:09;;;;;;;9.23;4.82;;;;;;;8.45;83.38;96282.31;4979070;28;20033;-87
2021/12/06 03:32:34;;;;;;;7.97;4.93;;;;;;;8.74;82.92;96320.13;4979891;28;20485;-89
2021/12/06 03:35:00;;;;;;;9.25;4.40;;;;;;;8.66;82.98;96302.88;4979886;28;20041;-88
2021/12/06 03:37:26;;;;;;;12.07;4.78;;;;;;;8.61;82.23;96272.22;4979013;28;20026;-88
2021/12/06 03:40:10;;;;;;;8.55;5.45;;;;;;;8.82;81.81;96317.75;4979892;28;20082;-89
2021/12/06 03:42:38;;;;;;;10.20;5.10;;;;;;;8.81;81.55;96306.22;4979102;28;20040;-89
2021/12/06 03:45:09;;;;;;;9.60;5.30;;;;;;;8.75;82.82;96317.34;4987723;28;20037;-89
2021/12/06 03:47:35;;;;;;;16.08;6.15;;;;;;;8.48;82.52;96280.28;5098332;28;20020;-90
2021/12/06 03:50:01;;;;;;;10.90;6.13;;;;;;;8.34;82.56;96268.91;5098618;28;20045;-88
2021/12/06 03:52:27;;;;;;;8.57;4.50;;;;;;;8.29;83.01;96276.41;5097412;28;20019;-89
2021/12/06 03:54:53;;;;;;;7.78;4.63;;;;;;;8.58;82.80;96305.25;5098888;28;20127;-90
2021/12/06 03:57:20;;;;;;;10.70;5.72;;;;;;;8.56;81.79;96296.53;5098969;28;20032;-91
2021/12/06 03:59:46;;;;;;;10.70;5.50;;;;;;;8.77;81.66;96325.25;5097984;28;20570;-89
2021/12/06 04:02:11;;;;;;;9.32;5.47;;;;;;;8.66;81.66;96302.03;5098146;28;20022;-90
2021/12/06 04:04:38;;;;;;;14.70;5.03;;;;;;;8.92;80.60;96330.25;5098612;28;20046;-89
2021/12/06 04:07:04;;;;;;;7.35;4.63;;;;;;;8.68;80.01;96278.78;5098187;28;20028;-89
2021/12/06 04:09:30;;;;;;;9.43;5.10;;;;;;;8.81;80.26;96290.22;5079849;28;20087;-90
2021/12/06 04:11:56;;;;;;;13.07;5.57;;;;;;;8.98;80.08;96319.13;5097564;28;20034;-88
2021/12/06 04:14:22;;;;;;;13.45;5.25;;;;;;;8.78;79.68;96273.59;5096986;28;20028;-88
2021/12/06 04:16:48;;;;;;;10.85;5.10;;;;;;;8.88;79.80;96301.28;5081207;28;20020;-89
2021/12/06 04:19:14;;;;;;;10.02;5.13;;;;;;;8.81;79.70;96294.69;5080620;28;20043;-87
2021/12/06 04:21:41;;;;;;;10.20;5.40;;;;;;;8.68;79.77;96278.78;5080191;28;20063;-88
2021/12/06 04:24:09;;;;;;;12.23;6.20;;;;;;;8.74;79.78;96280.97;5080013;28;20023;-88
2021/12/06 04:26:34;;;;;;;9.93;5.43;;;;;;;8.69;79.97;96280.47;5080823;28;20034;-88
2021/12/06 04:29:01;;;;;;;10.07;5.43;;;;;;;8.47;79.88;96249.25;5097941;28;20474;-89
2021/12/06 04:31:31;;;;;;;11.35;5.80;;;;;;;8.92;80.40;96319.59;5095908;28;20030;-89
2021/12/06 04:33:57;;;;;;;11.75;5.82;;;;;;;8.74;80.65;96302.28;5097141;28;20024;-89
2021/12/06 04:36:29;;;;;;;10.90;6.25;;;;;;;8.61;81.37;96293.53;5080476;28;20030;-87
2021/12/06 04:38:54;;;;;;;10.43;5.85;;;;;;;8.67;81.99;96311.75;5083798;28;20023;-89
2021/12/06 04:41:20;;;;;;;10.65;5.65;;;;;;;8.58;82.28;96305.25;5080413;28;20035;-81
2021/12/06 04:43:47;;;;;;;15.45;7.45;;;;;;;8.64;82.28;96314.63;5097655;28;20051;-89
2021/12/06 04:46:13;;;;;;;9.75;5.55;;;;;;;8.57;81.97;96281.41;4998552;28;20030;-89
2021/12/06 04:48:44;;;;;;;10.50;5.95;;;;;;;8.31;81.74;96255.81;5081945;28;20121;-89
2021/12/06 04:51:16;;;;;;;17.17;7.03;;;;;;;8.69;82.14;96334.66;4998555;28;20033;-88
2021/12/06 04:53:42;;;;;;;6.45;4.32;;;;;;;8.38;83.01;96300.56;4996065;28;20010;-90
2021/12/06 04:56:23;;;;;;;12.85;6.13;;;;;;;8.58;83.35;96325.75;5093366;28;20061;-89
2021/12/06 04:59:07;;;;;;;9.05;5.72;;;;;;;8.36;83.67;96314.94;5098279;28;20024;-90
2021/12/06 05:01:34;;;;;;;7.78;4.45;;;;;;;8.45;82.86;96314.28;5115245;28;20020;-90
2021/12/06 05:04:08;;;;;;;11.75;5.93;;;;;;;8.34;82.89;96292.88;5081027;28;20034;-89
2021/12/06 05:06:36;;;;;;;12.40;7.18;;;;;;;8.06;83.28;96254.91;5098501;28;20475;-91
2021/12/06 05:09:13;;;;;;;14.02;6.90;;;;;;;8.11;83.60;96260.78;5097957;28;20414;-90
2021/12/06 05:11:41;;;;;;;11.77;6.70;;;;;;;8.12;84.10;96264.28;5096431;28;20032;-92
2021/12/06 05:14:07;;;;;;;13.88;6.80;;;;;;;8.13;84.57;96271.31;5005062;28;20121;-91
2021/12/06 05:16:35;;;;;;;14.55;6.97;;;;;;;8.17;84.79;96292.28;4977302;28;20086;-90
2021/12/06 05:19:01;;;;;;;10.30;6.60;;;;;;;8.25;85.16;96312.16;4988992;28;20114;-86
2021/12/06 05:24:48;;;;;;;11.77;6.38;;;;;;;7.83;86.97;96306.31;4996139;28;20115;-82
2021/12/06 05:27:14;;;;;;;11.23;6.25;;;;;;;7.75;87.73;96294.53;4995983;28;20034;-91
2021/12/06 05:29:45;;;;;;;12.55;7.57;;;;;;;7.74;87.84;96306.97;4983125;28;20472;-90
2021/12/06 05:32:33;;;;;;;18.35;9.50;;;;;;;7.62;88.50;96302.50;4964864;28;20032;-91
2021/12/06 05:35:06;;;;;;;12.45;7.88;;;;;;;7.34;90.27;96305.38;4978977;28;20104;-88
2021/12/06 05:37:35;;;;;;;21.05;11.20;;;;;;;7.29;92.66;96323.47;4977420;28;20087;-91
2021/12/06 05:40:01;;;;;;;17.30;9.30;;;;;;;7.58;92.05;96354.22;4977015;28;20033;-93
2021/12/06 05:42:27;;;;;;;12.50;5.57;;;;;;;7.44;90.52;96309.97;4964907;28;20026;-89
2021/12/06 05:44:53;;;;;;;10.88;6.43;;;;;;;8.11;88.38;96367.28;4962952;28;20405;-90
2021/12/06 05:47:18;;;;;;;11.63;7.03;;;;;;;8.05;87.31;96348.25;4961915;28;20030;-88
2021/12/06 05:49:44;;;;;;;11.20;6.93;;;;;;;8.02;87.40;96340.47;4978921;28;20030;-89
2021/12/06 05:52:10;;;;;;;7.78;4.78;;;;;;;7.99;86.87;96330.03;4978817;28;20508;-89
2021/12/06 05:54:36;;;;;;;13.88;7.90;;;;;;;8.05;86.62;96319.81;4991149;28;20039;-90
2021/12/06 05:57:05;;;;;;;17.33;9.35;;;;;;;8.19;86.21;96338.28;4998612;28;20031;-89
2021/12/06 05:59:31;;;;;;;14.35;7.50;;;;;;;8.20;86.35;96347.13;5001804;28;20030;-88
2021/12/06 06:01:56;;;;;;;22.17;11.98;;;;;;;8.00;86.90;96300.63;5001188;28;20554;-90
2021/12/06 06:04:23;;;;;;;19.05;9.45;;;;;;;8.31;86.54;96343.72;4999464;28;20022;-91
2021/12/06 06:06:49;;;;;;;18.23;8.68;;;;;;;8.33;86.27;96341.81;4979950;28;20409;-91
2021/12/06 06:09:39;;;;;;;13.18;7.00;;;;;;;8.57;84.61;96377.34;4980363;28;20133;-90
2021/12/06 06:12:05;;;;;;;12.60;6.28;;;;;;;8.65;82.96;96346.50;4963065;28;20037;-91
2021/12/06 06:14:32;;;;;;;14.95;6.97;;;;;;;8.67;83.48;96363.22;4963295;28;20415;-90
2021/12/06 06:17:07;;;;;;;14.07;7.35;;;;;;;8.76;83.28;96368.84;4964712;28;20034;-90
2021/12/06 06:19:33;;;;;;;9.73;5.97;;;;;;;8.58;83.37;96342.56;4968135;28;20034;-91
2021/12/06 06:21:59;;;;;;;11.75;5.82;;;;;;;8.60;83.71;96342.47;4964465;28;20469;-90
2021/12/06 06:24:24;;;;;;;10.90;5.30;;;;;;;8.65;83.67;96357.16;4980116;28;20034;-90
2021/12/06 06:26:50;;;;;;;15.25;7.78;;;;;;;8.57;83.57;96327.56;4981058;28;20064;-89
2021/12/06 06:29:16;;;;;;;13.82;7.22;;;;;;;8.67;83.11;96338.41;4981141;28;20040;-92
2021/12/06 06:31:42;;;;;;;9.63;5.38;;;;;;;8.88;82.18;96355.47;4966665;28;20129;-90
2021/12/06 06:34:08;;;;;;;11.80;6.57;;;;;;;8.80;82.17;96323.16;4967149;28;20060;-91
2021/12/06 06:36:34;;;;;;;10.98;6.03;;;;;;;9.09;79.29;96303.19;4966666;28;20019;-92
2021/12/06 06:39:00;;;;;;;12.48;8.15;;;;;;;9.27;78.48;96299.09;4965028;28;20031;-90
2021/12/06 06:41:30;;;;;;;10.85;5.93;;;;;;;10.27;74.36;96303.69;4980120;28;20030;-93
2021/12/06 06:43:56;;;;;;;10.73;5.75;;;;;;;11.69;68.05;96328.28;4982252;28;20018;-91
2021/12/06 06:46:21;;;;;;;11.68;7.70;;;;;;;12.02;65.03;96290.56;4980670;28;20029;-91
2021/12/06 06:48:47;;;;;;;10.90;6.00;;;;;;;12.60;62.50;96291.59;4982580;28;20045;-93
2021/12/06 06:51:13;;;;;;;9.65;6.35;;;;;;;13.25;58.93;96288.28;4964984;28;20049;-91
2021/12/06 06:53:39;;;;;;;13.77;7.72;;;;;;;13.78;57.09;96283.22;4979193;28;20474;-93
2021/12/06 06:56:05;;;;;;;11.65;6.60;;;;;;;14.52;53.43;96232.09;4964177;28;20483;-91
2021/12/06 06:58:30;;;;;;;13.80;7.35;;;;;;;14.70;52.61;96264.44;4981335;28;20499;-91
2021/12/06 07:00:59;;;;;;;13.25;8.10;;;;;;;15.16;51.03;96269.63;4982204;28;20022;-92
2021/12/06 07:03:29;;;;;;;11.13;5.93;;;;;;;15.66;50.09;96270.72;4948766;28;20034;-92
2021/12/06 07:05:55;;;;;;;15.27;7.38;;;;;;;16.34;48.23;96256.44;4981254;28;20041;-91
2021/12/06 07:08:21;;;;;;;18.13;8.90;;;;;;;17.41;46.16;96304.22;4982543;28;20064;-90
2021/12/06 07:10:50;;;;;;;22.70;9.77;;;;;;;17.39;45.91;96281.06;4997521;28;20032;-91
2021/12/06 07:13:15;;;;;;;15.52;8.10;;;;;;;18.17;44.55;96314.72;4997638;28;20016;-91
2021/12/06 07:15:41;;;;;;;16.27;9.63;;;;;;;17.98;44.37;96279.91;4998440;28;20029;-93
2021/12/06 07:18:07;;;;;;;22.15;10.95;;;;;;;17.02;46.73;96308.53;5012685;28;20087;-92
2021/12/06 07:20:33;;;;;;;16.77;9.30;;;;;;;17.35;45.33;96291.38;4996700;28;20026;-92
2021/12/06 07:22:59;;;;;;;16.83;11.23;;;;;;;17.20;46.03;96311.94;5010246;28;20018;-94
2021/12/06 07:25:25;;;;;;;22.35;11.95;;;;;;;17.60;45.81;96322.84;5025311;28;20058;-92
2021/12/06 07:27:52;;;;;;;24.20;13.40;;;;;;;17.58;45.47;96307.81;5020622;28;20097;-93
2021/12/06 07:30:19;;;;;;;33.97;18.85;;;;;;;17.85;45.33;96300.22;5002446;28;20026;-93
2021/12/06 07:32:45;;;;;;;15.13;9.20;;;;;;;17.63;45.86;96310.84;4982941;28;20022;-93
2021/12/06 07:35:12;;;;;;;19.02;10.38;;;;;;;17.80;46.54;96317.97;5014271;28;20030;-91
2021/12/06 07:37:38;;;;;;;15.35;10.10;;;;;;;17.33;45.17;96288.00;4997676;28;20458;-92
2021/12/06 07:40:06;;;;;;;16.17;9.07;;;;;;;16.20;48.08;96319.97;5082549;28;20438;-92
2021/12/06 07:42:32;;;;;;;18.67;9.50;;;;;;;16.26;49.06;96309.41;4997703;28;20086;-91
2021/12/06 07:44:58;;;;;;;13.45;8.57;;;;;;;17.15;46.49;96322.44;4981076;28;20038;-91
2021/12/06 07:47:24;;;;;;;17.90;9.82;;;;;;;17.37;46.01;96305.59;4999172;28;20056;-91
2021/12/06 07:49:49;;;;;;;21.02;9.57;;;;;;;17.89;44.71;96284.47;4997570;28;20079;-90
2021/12/06 07:55:37;;;;;;;16.23;8.32;;;;;;;18.64;42.43;96291.22;5015618;28;20071;-91
2021/12/06 07:58:05;;;;;;;91.60;42.65;;;;;;;18.42;43.23;96283.88;4998305;28;20030;-91
2021/12/06 08:00:32;;;;;;;8.32;5.35;;;;;;;18.64;42.65;96283.09;5014157;28;20033;-90
2021/12/06 08:02:59;;;;;;;11.95;7.45;;;;;;;18.34;44.17;96309.09;5007136;28;20051;-90
2021/12/06 08:05:30;;;;;;;10.98;6.68;;;;;;;18.56;43.23;96304.81;4996860;28;20047;-90
2021/12/06 08:07:58;;;;;;;10.30;6.38;;;;;;;18.83;43.32;96288.09;5017440;28;20058;-91
2021/12/06 08:10:23;;;;;;;8.50;5.00;;;;;;;18.33;42.93;96280.31;5061615;28;20039;-91
2021/12/06 08:13:08;;;;;;;18.48;8.43;;;;;;;18.11;44.72;96315.41;5069864;28;20205;-90
2021/12/06 08:15:34;;;;;;;188.25;64.25;;;;;;;17.50;45.19;96292.41;5061477;28;20783;-91
2021/12/06 08:18:00;;;;;;;76.97;32.90;;;;;;;17.12;46.08;96301.13;5078913;28;20020;-92
2021/12/06 08:20:26;;;;;;;18.20;8.73;;;;;;;18.24;44.22;96307.59;5078483;28;20037;-93
2021/12/06 08:22:51;;;;;;;8.57;5.30;;;;;;;17.63;45.67;96310.84;5061845;28;20510;-91
2021/12/06 08:25:18;;;;;;;16.17;8.00;;;;;;;17.65;45.34;96314.25;5060303;28;20035;-91
2021/12/06 08:27:44;;;;;;;14.77;9.48;;;;;;;17.38;46.15;96312.66;5060380;28;20577;-91
2021/12/06 08:30:10;;;;;;;15.55;6.97;;;;;;;16.91;46.32;96298.91;5061486;28;20225;-91
2021/12/06 08:32:36;;;;;;;13.68;6.50;;;;;;;16.24;47.89;96321.38;5061007;28;20027;-90
2021/12/06 08:35:04;;;;;;;32.65;15.93;;;;;;;15.60;49.34;96319.88;5062141;28;20048;-91
2021/12/06 08:37:30;;;;;;;20.40;10.93;;;;;;;14.81;51.73;96335.06;5077673;28;20069;-91
2021/12/06 08:39:56;;;;;;;11.68;7.60;;;;;;;14.17;53.92;96361.94;5061581;28;20031;-91
2021/12/06 08:42:21;;;;;;;11.77;6.97;;;;;;;14.08;54.94;96368.19;5059706;28;20089;-90
2021/12/06 08:44:47;;;;;;;7.35;4.43;;;;;;;14.18;54.42;96335.91;5059595;28;20020;-90
2021/12/06 08:47:15;;;;;;;13.75;6.32;;;;;;;14.37;54.50;96325.94;5061224;28;20032;-91
2021/12/06 08:49:41;;;;;;;12.50;6.63;;;;;;;15.14;52.62;96314.69;5074733;28;20043;-90
2021/12/06 08:52:07;;;;;;;16.48;7.75;;;;;;;15.81;50.84;96313.31;5076596;28;20035;-91
2021/12/06 08:54:32;;;;;;;7.60;4.68;;;;;;;15.69;50.55;96327.03;5075725;28;20028;-90
2021/12/06 08:57:00;;;;;;;9.88;6.05;;;;;;;15.75;50.53;96320.16;5060109;28;20028;-90
2021/12/06 08:59:26;;;;;;;6.22;3.97;;;;;;;15.72;50.34;96337.50;5093880;28;20020;-90
2021/12/06 09:01:54;;;;;;;8.23;4.88;;;;;;;16.07;50.44;96325.81;5060977;28;20035;-91
2021/12/06 09:04:20;;;;;;;8.60;5.57;;;;;;;16.10;49.16;96271.53;5056247;28;20040;-92
2021/12/06 09:06:50;;;;;;;13.38;6.75;;;;;;;15.75;50.02;96276.19;5076982;28;20020;-90
2021/12/06 09:09:16;;;;;;;11.30;6.38;;;;;;;16.27;49.08;96258.97;4979530;28;20103;-90
2021/12/06 09:12:01;;;;;;;10.43;6.43;;;;;;;17.16;48.03;96302.50;5000222;28;20040;-91
2021/12/06 09:14:28;;;;;;;11.63;6.68;;;;;;;17.82;46.50;96272.66;5076721;28;20039;-91
2021/12/06 09:16:55;;;;;;;7.00;4.15;;;;;;;18.05;45.42;96261.97;5096549;28;20111;-92
2021/12/06 09:19:21;;;;;;;8.93;5.68;;;;;;;18.96;43.78;96298.38;5098101;28;20107;-90
2021/12/06 09:21:46;;;;;;;11.52;5.57;;;;;;;19.36;43.23;96273.72;5014098;28;20061;-91
2021/12/06 09:24:16;;;;;;;9.07;5.72;;;;;;;19.95;41.34;96273.97;4980912;28;20073;-90
2021/12/06 09:26:43;;;;;;;10.80;5.22;;;;;;;19.18;42.38;96283.19;5044293;28;20059;-90
2021/12/06 09:29:09;;;;;;;8.60;5.30;;;;;;;17.87;44.99;96281.94;5081110;28;20032;-90
2021/12/06 09:31:35;;;;;;;7.97;4.65;;;;;;;17.08;46.75;96291.66;5066920;28;20026;-90
2021/12/06 09:34:01;;;;;;;10.15;6.30;;;;;;;17.49;46.57;96266.38;5014075;28;20047;-90
2021/12/06 09:36:27;;;;;;;14.90;6.85;;;;;;;18.04;45.66;96265.69;5088052;28;20119;-90
2021/12/06 09:38:53;;;;;;;12.38;7.30;;;;;;;18.29;45.44;96270.03;4981771;28;20037;-91
2021/12/06 09:41:23;;;;;;;11.02;6.07;;;;;;;18.24;44.96;96237.22;5023196;28;20470;-92
2021/12/06 09:43:50;;;;;;;9.65;6.40;;;;;;;18.48;44.38;96253.38;5003720;28;20482;-90
2021/12/06 09:46:16;;;;;;;11.02;6.10;;;;;;;17.67;46.11;96214.84;4997326;28;20473;-92
2021/12/06 09:48:45;;;;;;;18.92;10.13;;;;;;;17.88;46.35;96267.41;4982290;28;20034;-92
2021/12/06 09:51:21;;;;;;;8.60;4.88;;;;;;;16.75;47.59;96201.63;5034680;28;20116;-90
2021/12/06 09:53:49;;;;;;;10.55;5.45;;;;;;;16.16;49.09;96183.69;5061547;28;20025;-90
2021/12/06 09:56:23;;;;;;;9.88;5.50;;;;;;;15.90;50.04;96215.28;5019937;28;20028;-89
2021/12/06 09:58:49;;;;;;;11.93;5.45;;;;;;;15.69;50.88;96251.53;5097619;28;20061;-90
2021/12/06 10:26:27;;;;;;;11.77;6.47;;;;;;;17.02;48.12;96184.25;5649615;23;20042;-92
2021/12/06 10:29:03;;;;;;;10.93;6.03;;;;;;;16.89;48.81;96232.56;4982601;28;20035;-94
2021/12/06 10:31:31;;;;;;;10.13;5.55;;;;;;;16.89;48.78;96208.25;4982907;28;20098;-91
2021/12/06 10:33:58;;;;;;;13.65;5.68;;;;;;;17.48;47.29;96170.06;4985406;28;20229;-93
2021/12/06 10:36:26;;;;;;;10.48;6.10;;;;;;;17.84;46.39;96147.00;4985440;28;20057;-93
2021/12/06 10:38:54;;;;;;;9.60;5.03;;;;;;;18.55;45.04;96167.69;4983651;28;20046;-93
2021/12/06 10:41:25;;;;;;;5.25;3.58;;;;;;;18.82;44.00;96175.34;4983993;28;20030;-94
2021/12/06 10:43:59;;;;;;;8.75;5.80;;;;;;;18.71;44.27;96167.63;4982927;28;20030;-93
2021/12/06 10:46:25;;;;;;;10.48;6.20;;;;;;;18.81;43.93;96141.16;4984653;28;20030;-92
2021/12/06 10:48:54;;;;;;;7.40;4.70;;;;;;;19.15;42.66;96107.34;4993265;28;20069;-94
2021/12/06 10:54:47;;;;;;;8.90;5.15;;;;;;;19.02;42.90;96159.44;5010072;28;20042;-93
2021/12/06 10:57:15;;;;;;;12.57;6.47;;;;;;;18.51;44.27;96141.19;4996444;28;20485;-92
2021/12/06 11:11:34;;;;;;;9.52;5.65;;;;;;;17.27;47.33;96169.75;5426582;23;19921;-88
2021/12/06 11:14:06;;;;;;;11.77;4.70;;;;;;;16.61;47.98;96114.00;5001206;28;20404;-89
2021/12/06 11:16:38;;;;;;;10.73;6.25;;;;;;;16.84;48.53;96161.97;5000077;28;20026;-87
2021/12/06 11:19:09;;;;;;;9.05;4.95;;;;;;;16.68;48.28;96157.38;5000889;28;20451;-88
2021/12/06 11:21:52;;;;;;;9.48;4.63;;;;;;;16.38;49.17;96145.31;4999568;28;20025;-86
2021/12/06 11:24:19;;;;;;;7.25;4.70;;;;;;;16.32;49.35;96175.69;4999111;28;20048;-87
2021/12/06 11:26:59;;;;;;;9.43;5.78;;;;;;;15.92;50.14;96146.69;5000005;28;20093;-91
2021/12/06 11:30:17;;;;;;;11.70;5.80;;;;;;;16.09;50.76;96183.50;5017335;28;20421;-89
2021/12/06 11:32:46;;;;;;;11.15;5.97;;;;;;;15.92;50.55;96167.41;4998175;28;20037;-89
2021/12/06 11:35:18;;;;;;;13.63;6.32;;;;;;;15.61;51.11;96141.00;5000724;28;20026;-88
2021/12/06 11:37:48;;;;;;;113.75;33.65;;;;;;;15.60;51.38;96166.25;4998853;28;20033;-90
2021/12/06 11:40:39;;;;;;;16.13;6.80;;;;;;;15.45;51.92;96166.94;4998896;28;20026;-90
2021/12/06 11:43:07;;;;;;;8.10;4.45;;;;;;;15.06;51.88;96112.66;5014702;28;20026;-90
2021/12/06 11:45:52;;;;;;;7.90;5.32;;;;;;;15.24;52.50;96175.41;4998619;28;20026;-91
2021/12/06 11:48:20;;;;;;;7.28;4.55;;;;;;;15.27;52.16;96176.94;4998915;28;20057;-90
2021/12/06 11:51:03;;;;;;;16.65;6.43;;;;;;;15.40;52.27;96177.38;4998900;28;20029;-91
2021/12/06 11:53:49;;;;;;;14.32;7.50;;;;;;;15.64;52.44;96183.78;5032369;28;20056;-89
2021/12/06 11:56:18;;;;;;;20.27;8.95;;;;;;;15.85;51.24;96145.66;4998920;28;20489;-90
2021/12/06 11:58:59;;;;;;;20.25;9.95;;;;;;;16.27;50.05;96142.94;4998480;28;20026;-91
2021/12/06 12:01:34;;;;;;;13.43;5.90;;;;;;;16.66;49.13;96159.41;4998570;28;20040;-90
2021/12/06 12:04:11;;;;;;;14.50;5.63;;;;;;;16.97;48.56;96136.16;4998479;28;20544;-90
2021/12/06 12:06:42;;;;;;;12.48;6.78;;;;;;;17.14;48.24;96158.59;4998285;28;20029;-89
2021/12/06 12:09:20;;;;;;;17.27;7.13;;;;;;;16.58;48.78;96103.53;4998966;28;20064;-89
2021/12/06 12:12:01;;;;;;;13.60;6.47;;;;;;;16.99;48.71;96157.59;5015006;28;20153;-89
2021/12/06 12:14:28;;;;;;;8.13;4.45;;;;;;;16.92;48.51;96168.22;5014875;28;20030;-90
2021/12/06 12:16:54;;;;;;;11.18;6.25;;;;;;;16.71;48.98;96146.25;4998406;28;20037;-91
2021/12/06 12:19:20;;;;;;;15.20;7.93;;;;;;;16.76;49.15;96163.63;4998436;28;20065;-90
2021/12/06 12:21:46;;;;;;;13.85;8.35;;;;;;;16.62;49.90;96161.59;4998428;28;20041;-90
2021/12/06 12:24:12;;;;;;;10.70;6.20;;;;;;;16.44;49.73;96155.47;4998511;28;20041;-90
2021/12/06 12:26:43;;;;;;;8.77;5.20;;;;;;;17.03;49.17;96186.81;4998710;28;20029;-90
2021/12/06 12:29:15;;;;;;;8.50;4.32;;;;;;;17.52;46.50;96106.53;4998620;28;20034;-88
2021/12/06 12:31:41;;;;;;;7.43;4.65;;;;;;;18.78;44.48;96141.50;4998018;28;20037;-90
2021/12/06 12:34:07;;;;;;;5.22;3.58;;;;;;;18.92;43.83;96115.47;4997997;28;20111;-89
2021/12/06 12:36:34;;;;;;;8.30;5.15;;;;;;;18.84;44.69;96148.06;4998168;28;20045;-91
2021/12/06 12:39:00;;;;;;;9.35;4.28;;;;;;;18.48;45.23;96163.16;5013698;28;20552;-89
2021/12/06 12:41:33;;;;;;;9.18;4.07;;;;;;;18.36;44.82;96147.28;4996790;28;20053;-91
2021/12/06 12:44:10;;;;;;;5.68;3.35;;;;;;;17.95;45.08;96107.09;4996836;28;20096;-91